Time;durP1;ratioP1;P1;durP2;ratioP2;P2;SDS_P1;SDS_P2;PMS_P1;PMS_P2;Temp;Humidity;BMP_temperature;BMP_pressure;BME280_temperature;BME280_humidity;BME280_pressure;Samples;Min_cycle;Max_cycle;Signal;HPM_P1;HPM_P2
2022/06/23 00:01:14;;;;;;;4.33;1.45;;;;;;;15.33;81.15;98469.30;1699315;83;21002;-66
2022/06/23 00:03:41;;;;;;;3.20;2.08;;;;;;;15.29;81.12;98464.29;1697021;83;21040;-66
2022/06/23 00:06:10;;;;;;;4.95;1.57;;;;;;;15.27;81.27;98465.86;1696726;84;21017;-67
2022/06/23 00:08:45;;;;;;;4.72;1.67;;;;;;;15.21;81.42;98468.16;1689735;84;21568;-65
2022/06/23 00:11:22;;;;;;;5.80;1.95;;;;;;;15.27;81.75;98475.56;1695065;84;21045;-66
2022/06/23 00:13:49;;;;;;;3.58;2.02;;;;;;;15.29;81.68;98475.39;1694391;84;21053;-66
2022/06/23 00:16:25;;;;;;;5.05;1.72;;;;;;;15.32;81.67;98475.20;1680990;84;21025;-65
2022/06/23 00:18:51;;;;;;;2.60;2.00;;;;;;;15.35;81.64;98477.25;1722533;82;21094;-65
2022/06/23 00:21:28;;;;;;;3.98;1.92;;;;;;;15.37;81.38;98486.58;1729441;83;21529;-65
2022/06/23 00:24:01;;;;;;;2.90;2.08;;;;;;;15.40;81.37;98484.44;1728186;83;21045;-66
2022/06/23 00:26:31;;;;;;;4.95;1.90;;;;;;;15.40;81.15;98484.44;1726525;83;21000;-66
2022/06/23 00:29:08;;;;;;;2.70;1.70;;;;;;;15.36;81.06;98483.58;1712670;83;21091;-65
2022/06/23 00:31:57;;;;;;;4.90;1.80;;;;;;;15.31;81.17;98473.04;1705728;83;21511;-67
2022/06/23 00:34:36;;;;;;;3.17;1.80;;;;;;;15.31;81.44;98472.23;1729332;83;22138;-66
2022/06/23 00:37:07;;;;;;;2.33;2.02;;;;;;;15.29;81.49;98465.67;1729212;83;21008;-67
2022/06/23 00:39:52;;;;;;;4.15;1.90;;;;;;;15.29;81.53;98471.80;1686945;83;21008;-67
2022/06/23 00:42:29;;;;;;;12.07;2.15;;;;;;;15.30;81.62;98470.03;1727978;83;21521;-66
2022/06/23 00:45:28;;;;;;;5.20;2.22;;;;;;;15.32;81.58;98469.08;1701205;84;20973;-64
2022/06/23 00:48:23;;;;;;;2.37;1.67;;;;;;;15.27;81.55;98479.13;1711311;83;21528;-65
2022/06/23 00:51:04;;;;;;;2.65;2.08;;;;;;;15.24;82.01;98482.66;1709965;83;21519;-64
2022/06/23 00:53:48;;;;;;;3.92;2.17;;;;;;;15.26;81.97;98472.56;1706900;83;21039;-66
2022/06/23 00:56:24;;;;;;;3.05;2.00;;;;;;;15.30;81.93;98476.20;1724453;83;21060;-66
2022/06/23 00:58:59;;;;;;;2.12;1.92;;;;;;;15.29;81.89;98472.61;1720586;83;21133;-67
2022/06/23 01:01:37;;;;;;;4.05;2.42;;;;;;;15.28;82.02;98464.67;1699187;83;21600;-67
2022/06/23 01:04:38;;;;;;;3.27;2.02;;;;;;;15.28;82.22;98466.86;1700765;83;21084;-66
2022/06/23 01:07:28;;;;;;;4.83;2.02;;;;;;;15.27;82.54;98468.02;1681936;83;21471;-66
2022/06/23 01:10:00;;;;;;;3.40;2.05;;;;;;;15.27;83.18;98468.02;1732497;81;21470;-66
2022/06/23 01:12:44;;;;;;;4.20;2.05;;;;;;;15.27;83.37;98467.25;1720195;82;21016;-66
2022/06/23 01:15:22;;;;;;;7.70;2.35;;;;;;;15.26;83.58;98472.56;1730293;81;21718;-66
2022/06/23 01:18:16;;;;;;;4.25;2.22;;;;;;;15.24;84.02;98472.14;1732376;81;21528;-65
2022/06/23 01:20:58;;;;;;;5.22;2.17;;;;;;;15.17;84.34;98471.45;1680350;83;21040;-65
2022/06/23 01:23:58;;;;;;;3.15;2.20;;;;;;;15.13;84.88;98468.64;1704075;83;21012;-67
2022/06/23 01:27:07;;;;;;;6.80;2.27;;;;;;;15.09;85.29;98461.68;1702210;83;21000;-66
2022/06/23 01:29:48;;;;;;;3.77;2.10;;;;;;;15.08;85.91;98450.36;1701835;84;21530;-67
2022/06/23 01:32:22;;;;;;;7.90;2.50;;;;;;;15.09;86.27;98456.71;1700557;83;21007;-68
2022/06/23 01:35:28;;;;;;;2.37;2.02;;;;;;;15.06;86.55;98447.16;1710244;83;21492;-67
2022/06/23 01:38:24;;;;;;;2.92;2.30;;;;;;;15.02;86.91;98446.33;1707803;81;20989;-67
2022/06/23 01:40:59;;;;;;;5.15;2.37;;;;;;;14.94;87.36;98450.96;1710434;82;21318;-66
2022/06/23 01:43:40;;;;;;;2.72;2.05;;;;;;;14.93;88.22;98459.66;1722641;82;21724;-66
2022/06/23 01:46:20;;;;;;;3.72;2.30;;;;;;;14.86;88.64;98458.20;1713313;82;20996;-67
2022/06/23 01:49:04;;;;;;;3.10;2.33;;;;;;;14.90;89.18;98464.58;1728141;81;21060;-66
2022/06/23 01:51:40;;;;;;;3.45;2.77;;;;;;;14.94;89.40;98467.60;1712216;83;21055;-67
2022/06/23 01:54:23;;;;;;;3.62;2.70;;;;;;;14.97;89.49;98468.84;1700140;84;21512;-64
2022/06/23 01:57:13;;;;;;;8.40;2.87;;;;;;;14.90;89.50;98474.28;1711696;82;21168;-67
2022/06/23 02:00:13;;;;;;;5.62;2.50;;;;;;;14.91;89.82;98471.73;1697424;82;21110;-67
2022/06/23 02:02:51;;;;;;;5.72;2.70;;;;;;;14.96;90.07;98475.58;1700753;82;20996;-67
2022/06/23 02:05:31;;;;;;;4.53;2.92;;;;;;;15.00;90.09;98479.75;1700848;82;21079;-65
2022/06/23 02:08:35;;;;;;;6.87;3.25;;;;;;;14.94;90.30;98480.08;1708417;82;21030;-66
2022/06/23 02:11:13;;;;;;;6.25;3.47;;;;;;;14.87;90.45;98475.84;1710776;82;21123;-67
2022/06/23 02:14:12;;;;;;;6.30;3.10;;;;;;;14.84;90.72;98479.38;1704049;82;21590;-67
2022/06/23 02:16:56;;;;;;;7.28;3.50;;;;;;;14.84;91.06;98481.53;1700133;82;21080;-66
2022/06/23 02:19:44;;;;;;;3.60;3.12;;;;;;;14.81;91.25;98484.25;1708080;82;21037;-67
2022/06/23 02:22:16;;;;;;;3.80;2.50;;;;;;;14.81;91.40;98484.25;1675638;83;21031;-66
2022/06/23 02:25:06;;;;;;;6.28;2.62;;;;;;;14.80;91.33;98488.19;1711050;83;21148;-65
2022/06/23 02:27:55;;;;;;;6.97;3.95;;;;;;;14.80;91.39;98489.57;1706299;82;21094;-67
2022/06/23 02:30:47;;;;;;;4.53;2.98;;;;;;;14.78;91.34;98487.17;1703398;82;20991;-66
2022/06/23 02:33:41;;;;;;;3.67;3.17;;;;;;;14.77;91.62;98491.13;1707188;82;21044;-67
2022/06/23 02:36:39;;;;;;;5.72;2.95;;;;;;;14.79;91.63;98484.60;1714183;82;21199;-65
2022/06/23 02:39:09;;;;;;;8.70;2.87;;;;;;;14.78;91.68;98484.40;1714192;83;21543;-66
2022/06/23 02:41:50;;;;;;;7.90;3.17;;;;;;;14.82;91.73;98488.03;1730019;81;21057;-66
2022/06/23 02:44:39;;;;;;;4.25;2.45;;;;;;;14.78;91.27;98483.02;1727932;81;21521;-67
2022/06/23 02:47:39;;;;;;;3.67;3.15;;;;;;;14.76;91.40;98494.25;1726780;81;21084;-66
2022/06/23 02:50:13;;;;;;;3.60;2.58;;;;;;;14.73;91.60;98497.20;1698042;84;21056;-66
2022/06/23 02:53:07;;;;;;;7.72;3.10;;;;;;;14.81;91.81;98496.73;1696272;84;21148;-65
2022/06/23 02:56:09;;;;;;;6.33;3.17;;;;;;;14.83;91.56;98495.20;1698784;84;21020;-66
2022/06/23 02:58:47;;;;;;;6.37;2.47;;;;;;;14.86;91.53;98495.02;1725127;83;21573;-66
2022/06/23 03:01:25;;;;;;;4.25;3.08;;;;;;;14.89;91.51;98493.49;1696164;83;21084;-66
2022/06/23 03:04:15;;;;;;;4.05;2.70;;;;;;;14.96;91.37;98499.15;1694415;83;21067;-66
2022/06/23 03:07:08;;;;;;;5.42;2.45;;;;;;;14.94;90.72;98499.50;1675301;84;21549;-66
2022/06/23 03:10:01;;;;;;;4.90;2.70;;;;;;;14.97;90.92;98500.73;1659087;83;21043;-65
2022/06/23 03:12:41;;;;;;;7.20;3.35;;;;;;;14.98;90.58;98496.00;1701008;83;21040;-65
2022/06/23 03:15:14;;;;;;;6.08;3.25;;;;;;;14.96;90.50;98498.54;1704406;83;21027;-65
2022/06/23 03:18:00;;;;;;;7.05;2.90;;;;;;;14.92;90.24;98506.03;1725324;81;21103;-65
2022/06/23 03:20:39;;;;;;;5.40;3.20;;;;;;;14.92;90.23;98502.44;1704274;83;21162;-65
2022/06/23 03:23:27;;;;;;;6.72;3.65;;;;;;;14.90;90.32;98506.17;1727549;81;21100;-66
2022/06/23 03:26:11;;;;;;;8.18;4.30;;;;;;;14.90;90.14;98500.05;1713663;82;20992;-66
2022/06/23 03:29:12;;;;;;;11.78;3.85;;;;;;;14.88;90.20;98501.58;1725630;81;20998;-65
2022/06/23 03:31:50;;;;;;;7.90;3.87;;;;;;;14.88;90.33;98493.27;1713891;82;21012;-65
2022/06/23 03:34:45;;;;;;;5.30;3.37;;;;;;;14.90;90.22;98495.89;1693388;82;21610;-66
2022/06/23 03:37:36;;;;;;;10.80;3.30;;;;;;;14.92;90.41;98491.35;1714083;82;20996;-67
2022/06/23 03:43:22;;;;;;;5.62;3.35;;;;;;;15.04;90.61;98509.16;1713217;83;21043;-67
2022/06/23 03:45:56;;;;;;;6.20;3.60;;;;;;;15.12;90.10;98516.17;1709211;82;21030;-67
2022/06/23 03:48:54;;;;;;;3.97;3.40;;;;;;;15.11;89.72;98520.94;1714354;83;21479;-67
2022/06/23 03:51:36;;;;;;;4.58;2.92;;;;;;;15.13;89.67;98520.56;1703839;82;21528;-66
2022/06/23 03:54:16;;;;;;;4.83;3.00;;;;;;;15.18;89.71;98531.34;1718628;83;21047;-66
2022/06/23 03:56:51;;;;;;;6.15;3.67;;;;;;;15.24;89.69;98529.02;1712818;82;21044;-66
2022/06/23 03:59:23;;;;;;;8.00;4.12;;;;;;;15.28;89.29;98532.07;1700086;82;21485;-66
2022/06/23 04:01:55;;;;;;;7.58;3.50;;;;;;;15.32;89.42;98535.67;1705696;84;21610;-65
2022/06/23 04:04:26;;;;;;;3.90;3.35;;;;;;;15.38;89.12;98538.13;1706706;82;21499;-66
2022/06/23 04:06:53;;;;;;;4.55;2.72;;;;;;;15.40;88.76;98536.59;1719949;83;21041;-65
2022/06/23 04:09:32;;;;;;;6.72;2.92;;;;;;;15.39;88.56;98535.55;1712104;83;21083;-65
2022/06/23 04:12:10;;;;;;;6.92;3.17;;;;;;;15.41;88.45;98541.53;1718098;82;21153;-66
2022/06/23 04:14:51;;;;;;;6.15;2.77;;;;;;;15.44;88.30;98540.77;1722968;83;21143;-65
2022/06/23 04:17:34;;;;;;;4.08;2.87;;;;;;;15.42;87.90;98543.14;1726743;83;21063;-66
2022/06/23 04:20:17;;;;;;;3.52;2.77;;;;;;;15.43;87.99;98553.06;1702101;84;21020;-65
2022/06/23 04:23:15;;;;;;;4.45;2.80;;;;;;;15.43;87.70;98543.34;1707250;83;21033;-66
2022/06/23 04:25:53;;;;;;;7.47;3.62;;;;;;;15.43;87.84;98546.13;1708535;83;21047;-66
2022/06/23 04:28:28;;;;;;;5.10;3.12;;;;;;;15.41;87.62;98547.08;1710920;82;21135;-66
2022/06/23 04:30:56;;;;;;;7.37;3.20;;;;;;;15.40;87.77;98550.46;1703179;83;21460;-66
2022/06/23 04:33:26;;;;;;;4.67;3.40;;;;;;;15.42;87.84;98545.31;1709717;83;21086;-65
2022/06/23 04:35:56;;;;;;;2.65;2.45;;;;;;;15.45;87.64;98553.48;1699885;83;21537;-65
2022/06/23 04:38:34;;;;;;;5.87;2.80;;;;;;;15.48;87.80;98551.34;1707876;83;21076;-66
2022/06/23 04:41:30;;;;;;;4.53;3.20;;;;;;;15.55;87.49;98559.77;1702222;83;21694;-66
2022/06/23 04:44:07;;;;;;;3.27;2.98;;;;;;;15.58;87.35;98564.56;1719781;82;21017;-65
2022/06/23 04:47:07;;;;;;;5.15;2.85;;;;;;;15.62;87.27;98562.41;1746086;81;21553;-66
2022/06/23 04:49:38;;;;;;;9.15;3.22;;;;;;;15.63;87.01;98563.42;1737711;81;20978;-67
2022/06/23 04:52:43;;;;;;;4.95;3.20;;;;;;;15.64;86.87;98570.59;1729188;81;21033;-66
2022/06/23 04:55:19;;;;;;;3.08;2.50;;;;;;;15.66;86.86;98559.10;1704895;83;22138;-67
2022/06/23 04:57:50;;;;;;;5.10;2.87;;;;;;;15.69;86.99;98563.89;1731962;81;21028;-67
2022/06/23 05:00:28;;;;;;;6.62;3.60;;;;;;;15.73;86.99;98570.88;1723965;83;21083;-68
2022/06/23 05:02:59;;;;;;;6.33;3.90;;;;;;;15.76;86.72;98569.52;1725451;82;21013;-66
2022/06/23 05:05:35;;;;;;;5.28;3.30;;;;;;;15.78;86.82;98568.55;1730121;81;21095;-66
2022/06/23 05:08:10;;;;;;;5.97;3.20;;;;;;;15.82;86.61;98570.80;1732540;82;21514;-66
2022/06/23 05:10:47;;;;;;;3.52;2.83;;;;;;;15.89;86.63;98571.46;1704758;83;21060;-67
2022/06/23 05:13:29;;;;;;;6.15;3.00;;;;;;;15.91;86.59;98574.67;1709856;83;21078;-67
2022/06/23 05:16:01;;;;;;;8.18;4.10;;;;;;;15.96;86.75;98571.33;1702661;83;22176;-66
2022/06/23 05:18:31;;;;;;;8.88;4.12;;;;;;;16.02;86.36;98574.02;1703884;84;21544;-66
2022/06/23 05:21:11;;;;;;;6.80;3.80;;;;;;;16.06;86.02;98571.48;1705183;83;21055;-66
2022/06/23 05:24:01;;;;;;;8.20;3.70;;;;;;;16.13;86.04;98574.92;1706325;82;21839;-66
2022/06/23 05:26:42;;;;;;;6.37;3.50;;;;;;;16.17;85.84;98576.36;1711523;82;20996;-66
2022/06/23 05:29:22;;;;;;;3.98;3.58;;;;;;;16.21;85.42;98574.40;1714275;82;21036;-66
2022/06/23 05:31:53;;;;;;;13.93;3.80;;;;;;;16.23;85.40;98577.59;1702388;82;21083;-64
2022/06/23 05:34:30;;;;;;;14.80;4.35;;;;;;;16.24;84.92;98575.63;1708196;82;21283;-67
2022/06/23 05:37:09;;;;;;;5.30;3.87;;;;;;;16.26;84.69;98584.36;1711757;82;21100;-65
2022/06/23 05:39:41;;;;;;;13.65;4.03;;;;;;;16.22;84.44;98590.48;1684033;84;21071;-67
2022/06/23 05:42:18;;;;;;;6.35;3.80;;;;;;;16.24;84.75;98593.08;1716627;82;21484;-65
2022/06/23 05:44:55;;;;;;;8.98;3.35;;;;;;;16.30;84.60;98594.36;1699570;83;21071;-66
2022/06/23 05:47:22;;;;;;;11.43;4.12;;;;;;;16.35;84.36;98591.00;1718755;81;21121;-66
2022/06/23 05:49:54;;;;;;;5.37;2.77;;;;;;;16.37;84.28;98593.63;1711854;82;21094;-66
2022/06/23 05:52:44;;;;;;;3.77;2.98;;;;;;;16.43;84.22;98596.25;1694072;83;21062;-66
2022/06/23 05:55:18;;;;;;;8.10;3.80;;;;;;;16.52;84.41;98597.33;1684474;83;21063;-66
2022/06/23 05:57:57;;;;;;;5.90;3.37;;;;;;;16.68;84.21;98596.28;1709228;83;20988;-67
2022/06/23 06:00:50;;;;;;;9.80;3.45;;;;;;;16.81;83.75;98594.58;1709404;83;21256;-68
2022/06/23 06:03:31;;;;;;;5.78;3.67;;;;;;;16.97;83.61;98597.09;1719353;83;21083;-67
2022/06/23 06:06:01;;;;;;;5.40;3.12;;;;;;;17.09;82.99;98601.00;1712939;83;20995;-67
2022/06/23 06:11:36;;;;;;;6.03;3.40;;;;;;;17.22;81.14;98605.65;1729002;81;21100;-66
2022/06/23 06:14:04;;;;;;;4.72;3.47;;;;;;;17.25;81.13;98601.28;1712333;82;21765;-67
2022/06/23 06:16:31;;;;;;;6.00;2.98;;;;;;;17.33;81.76;98600.74;1731231;81;21557;-66
2022/06/23 06:18:59;;;;;;;12.60;3.65;;;;;;;17.45;81.71;98605.96;1706315;82;21083;-67
2022/06/23 06:21:26;;;;;;;5.67;2.65;;;;;;;17.60;81.73;98601.88;1712782;82;21072;-66
2022/06/23 06:24:07;;;;;;;10.03;2.77;;;;;;;17.76;81.47;98609.89;1730274;81;21016;-67
2022/06/23 06:26:39;;;;;;;6.30;3.10;;;;;;;17.90;80.84;98604.98;1704533;83;21579;-67
2022/06/23 06:29:15;;;;;;;10.05;3.62;;;;;;;17.99;79.07;98604.62;1703461;83;21013;-66
2022/06/23 06:31:55;;;;;;;7.05;3.00;;;;;;;18.03;79.23;98604.63;1692211;82;21071;-66
2022/06/23 06:34:34;;;;;;;6.15;2.52;;;;;;;18.09;79.47;98601.66;1682937;83;21063;-67
2022/06/23 06:37:00;;;;;;;6.65;2.90;;;;;;;18.16;79.38;98594.75;1729205;81;21060;-67
2022/06/23 06:39:46;;;;;;;7.20;2.67;;;;;;;18.32;79.72;98594.36;1720133;82;21252;-67
2022/06/23 06:42:23;;;;;;;4.05;2.83;;;;;;;18.49;79.32;98598.99;1728267;81;21045;-66
2022/06/23 06:44:51;;;;;;;14.40;3.20;;;;;;;18.60;77.78;98608.16;1721103;82;21032;-67
2022/06/23 06:47:21;;;;;;;4.80;2.47;;;;;;;18.57;77.58;98615.13;1726878;81;21048;-67
2022/06/23 06:49:48;;;;;;;11.53;3.98;;;;;;;18.59;77.92;98612.74;1697588;82;21050;-67
2022/06/23 06:52:14;;;;;;;5.00;2.70;;;;;;;18.63;77.98;98626.70;1729667;81;21095;-67
2022/06/23 06:54:58;;;;;;;5.62;3.00;;;;;;;18.62;77.22;98623.09;1725852;83;21020;-66
2022/06/23 06:57:45;;;;;;;5.45;2.55;;;;;;;18.55;77.22;98617.50;1722227;81;27332;-67
2022/06/23 07:00:36;;;;;;;4.42;3.47;;;;;;;18.42;77.48;98622.67;1702719;83;21540;-66
2022/06/23 07:03:04;;;;;;;7.83;2.70;;;;;;;18.37;77.91;98630.22;1704473;83;21401;-66
2022/06/23 07:05:54;;;;;;;3.17;2.40;;;;;;;18.43;78.36;98633.44;1725086;81;21779;-67
2022/06/23 07:08:51;;;;;;;6.42;2.80;;;;;;;18.52;78.14;98640.61;1699929;83;21107;-67
2022/06/23 07:11:46;;;;;;;3.58;2.35;;;;;;;18.52;78.09;98642.81;1697647;83;21592;-66
2022/06/23 07:14:20;;;;;;;4.42;2.65;;;;;;;18.44;77.55;98646.17;1708516;83;21105;-66
2022/06/23 07:17:04;;;;;;;4.25;2.77;;;;;;;18.42;77.96;98654.16;1706231;83;21034;-66
2022/06/23 07:19:52;;;;;;;4.00;2.35;;;;;;;18.38;77.69;98658.91;1706013;83;21094;-66
2022/06/23 07:22:26;;;;;;;10.50;2.47;;;;;;;18.29;77.40;98672.44;1705392;83;21005;-66
2022/06/23 07:25:15;;;;;;;10.05;2.77;;;;;;;18.21;77.87;98676.59;1702962;83;21055;-65
2022/06/23 07:27:55;;;;;;;6.90;2.62;;;;;;;18.21;78.06;98678.58;1705247;83;21056;-65
2022/06/23 07:30:42;;;;;;;5.85;2.65;;;;;;;18.29;78.17;98678.80;1702293;84;21138;-66
2022/06/23 07:33:26;;;;;;;8.50;3.22;;;;;;;18.35;77.95;98684.80;1716272;82;21162;-65
2022/06/23 07:36:16;;;;;;;11.97;3.42;;;;;;;18.44;77.45;98692.18;1697892;83;21082;-65
2022/06/23 07:38:59;;;;;;;9.13;2.87;;;;;;;18.48;76.97;98686.03;1718812;82;21041;-65
2022/06/23 07:41:43;;;;;;;5.90;2.87;;;;;;;18.67;76.36;98692.45;1709606;83;21015;-64
2022/06/23 07:44:18;;;;;;;4.33;2.90;;;;;;;18.67;76.36;98692.45;1709843;83;21034;-65
2022/06/23 07:46:44;;;;;;;3.72;2.98;;;;;;;18.71;75.25;98698.03;1709846;83;22148;-67
2022/06/23 07:49:11;;;;;;;8.65;3.10;;;;;;;18.83;75.64;98701.05;1699175;83;21036;-66
2022/06/23 07:51:38;;;;;;;4.05;2.80;;;;;;;18.93;74.50;98690.50;1704915;82;21070;-67
2022/06/23 07:54:05;;;;;;;4.80;2.67;;;;;;;19.05;74.61;98698.27;1704482;83;21103;-66
2022/06/23 07:56:33;;;;;;;11.45;3.33;;;;;;;19.12;74.10;98697.50;1703259;83;21086;-67
2022/06/23 07:59:04;;;;;;;9.83;3.33;;;;;;;19.15;73.49;98701.70;1709624;83;21199;-67
2022/06/23 08:01:37;;;;;;;7.30;2.95;;;;;;;19.16;73.55;98702.47;1697167;83;21106;-65
2022/06/23 08:04:30;;;;;;;5.60;3.02;;;;;;;19.17;73.42;98707.69;1709577;82;21044;-67
2022/06/23 08:07:00;;;;;;;4.28;2.58;;;;;;;19.16;73.01;98713.05;1702191;83;21059;-66
2022/06/23 08:09:34;;;;;;;8.63;2.58;;;;;;;19.09;73.24;98709.62;1709725;82;21007;-66
2022/06/23 08:18:01;;;;;;;10.75;2.98;;;;;;;18.95;73.17;98736.14;1695462;83;21098;-66
2022/06/23 08:20:28;;;;;;;5.30;2.85;;;;;;;18.86;73.16;98726.75;1684576;83;21108;-66
2022/06/23 08:22:54;;;;;;;3.30;2.83;;;;;;;18.84;73.73;98736.11;1698460;83;21016;-66
2022/06/23 08:25:20;;;;;;;2.55;2.20;;;;;;;18.88;73.88;98729.95;1703536;84;21517;-66
2022/06/23 08:27:52;;;;;;;3.90;2.70;;;;;;;18.91;73.34;98740.91;1708994;83;21563;-66
2022/06/23 08:30:18;;;;;;;3.33;2.37;;;;;;;18.89;73.52;98735.73;1700303;83;21053;-67
2022/06/23 08:32:51;;;;;;;5.17;2.77;;;;;;;18.93;73.74;98742.13;1708873;82;21058;-66
2022/06/23 08:35:32;;;;;;;7.25;3.12;;;;;;;18.99;74.00;98745.30;1698823;83;21066;-66
2022/06/23 08:38:13;;;;;;;3.90;2.65;;;;;;;19.06;74.29;98747.30;1708468;83;21347;-66
2022/06/23 08:41:00;;;;;;;11.03;2.90;;;;;;;19.14;74.20;98743.35;1699542;82;21510;-67
2022/06/23 08:44:10;;;;;;;8.00;3.15;;;;;;;19.28;74.15;98742.56;1705510;83;20979;-66
2022/06/23 08:46:41;;;;;;;10.23;4.50;;;;;;;19.47;72.27;98739.17;1698359;83;20987;-66
2022/06/23 08:49:37;;;;;;;11.43;2.98;;;;;;;19.60;71.63;98748.55;1709756;83;21519;-65
2022/06/23 08:52:27;;;;;;;4.72;2.87;;;;;;;19.64;70.56;98747.93;1694687;83;21040;-66
2022/06/23 08:55:19;;;;;;;5.33;2.62;;;;;;;19.65;70.57;98751.72;1711780;82;21070;-65
2022/06/23 08:58:06;;;;;;;5.08;2.40;;;;;;;19.63;69.89;98753.33;1696665;83;21500;-67
2022/06/23 09:01:11;;;;;;;7.70;2.77;;;;;;;19.60;70.37;98763.32;1706893;83;21086;-66
2022/06/23 09:03:54;;;;;;;7.22;2.50;;;;;;;19.66;70.08;98756.13;1696825;83;21511;-66
2022/06/23 09:06:59;;;;;;;4.60;2.45;;;;;;;19.80;70.24;98765.68;1707968;83;21304;-67
2022/06/23 09:10:12;;;;;;;9.65;3.42;;;;;;;19.81;69.37;98770.87;1708223;82;20983;-65
2022/06/23 09:12:50;;;;;;;9.20;2.95;;;;;;;19.78;68.60;98772.27;1708631;82;21087;-66
2022/06/23 09:15:38;;;;;;;4.87;2.83;;;;;;;19.58;68.47;98788.06;1705874;83;21058;-66
2022/06/23 09:18:16;;;;;;;8.55;3.40;;;;;;;19.45;68.87;98803.81;1707735;83;21102;-65
2022/06/23 09:21:02;;;;;;;7.28;2.95;;;;;;;19.39;69.30;98797.63;1706326;81;21094;-64
2022/06/23 09:23:50;;;;;;;4.20;2.52;;;;;;;19.44;70.07;98796.64;1697210;83;21058;-65
2022/06/23 09:26:54;;;;;;;5.67;2.85;;;;;;;19.69;71.00;98798.63;1690456;84;21039;-66
2022/06/23 09:29:45;;;;;;;5.45;3.33;;;;;;;20.09;70.68;98794.20;1701342;83;21059;-66
2022/06/23 09:32:26;;;;;;;13.18;2.55;;;;;;;20.52;70.19;98798.88;1692736;84;21075;-65
2022/06/23 09:35:01;;;;;;;6.55;2.70;;;;;;;20.80;68.60;98795.73;1700813;83;21150;-67
2022/06/23 09:37:49;;;;;;;9.55;2.10;;;;;;;21.01;68.97;98794.86;1690312;84;21066;-66
2022/06/23 09:40:46;;;;;;;5.00;2.22;;;;;;;21.24;67.62;98789.29;1693353;83;21122;-66
2022/06/23 09:43:33;;;;;;;2.67;1.98;;;;;;;21.28;66.66;98788.67;1685486;84;21140;-66
2022/06/23 09:46:30;;;;;;;8.03;2.12;;;;;;;21.25;64.18;98790.09;1690272;84;21029;-66
2022/06/23 09:49:16;;;;;;;5.10;2.30;;;;;;;21.12;64.00;98794.77;1689149;84;21547;-66
2022/06/23 09:52:31;;;;;;;4.60;2.02;;;;;;;20.97;62.39;98814.26;1680303;84;21114;-65
2022/06/23 09:55:16;;;;;;;5.13;2.33;;;;;;;20.75;63.67;98810.15;1699330;83;21018;-67
2022/06/23 09:58:11;;;;;;;4.97;1.87;;;;;;;20.67;62.97;98824.20;1691244;84;21600;-65
2022/06/23 10:00:54;;;;;;;3.70;1.90;;;;;;;20.60;61.92;98813.62;1701131;83;21053;-66
2022/06/23 10:03:45;;;;;;;4.50;1.95;;;;;;;20.49;62.58;98817.25;1698579;83;21216;-66
2022/06/23 10:06:27;;;;;;;5.40;2.42;;;;;;;20.42;62.03;98820.88;1700909;83;21020;-66
2022/06/23 10:09:00;;;;;;;5.08;1.95;;;;;;;20.36;62.29;98829.48;1689856;84;21012;-66
2022/06/23 10:12:18;;;;;;;5.00;2.30;;;;;;;20.34;62.37;98824.89;1698465;84;21034;-64
2022/06/23 10:15:18;;;;;;;6.08;2.10;;;;;;;20.31;62.55;98827.11;1691468;84;21108;-66
2022/06/23 10:18:06;;;;;;;3.87;2.55;;;;;;;20.31;62.55;98829.91;1689891;83;21758;-65
2022/06/23 10:20:57;;;;;;;8.90;2.40;;;;;;;20.34;63.08;98829.69;1686114;84;21063;-65
2022/06/23 10:23:44;;;;;;;6.87;2.60;;;;;;;20.38;63.31;98827.69;1694941;83;21062;-65
2022/06/23 10:26:39;;;;;;;4.28;2.25;;;;;;;20.43;63.31;98829.48;1708938;83;21099;-64
2022/06/23 10:29:39;;;;;;;7.17;2.60;;;;;;;20.54;63.34;98842.60;1716553;82;21023;-66
2022/06/23 10:32:31;;;;;;;7.12;2.55;;;;;;;20.66;63.72;98830.98;1725783;83;21152;-65
2022/06/23 10:35:15;;;;;;;6.08;1.95;;;;;;;20.86;62.60;98836.70;1723979;83;21009;-65
2022/06/23 10:38:27;;;;;;;6.80;2.20;;;;;;;21.09;60.56;98819.40;1728045;81;21131;-66
2022/06/23 10:41:17;;;;;;;5.42;2.15;;;;;;;21.28;59.83;98824.28;1708478;82;21538;-67
2022/06/23 10:44:04;;;;;;;6.75;1.87;;;;;;;21.38;59.48;98830.41;1702463;82;21099;-66
2022/06/23 10:46:46;;;;;;;4.10;2.08;;;;;;;21.45;58.76;98842.77;1718159;82;21282;-67
2022/06/23 10:49:58;;;;;;;2.52;1.67;;;;;;;21.40;58.20;98850.42;1698191;81;21071;-66
2022/06/23 10:52:43;;;;;;;8.23;1.90;;;;;;;21.35;57.97;98848.05;1676444;82;21520;-68
2022/06/23 10:55:29;;;;;;;7.78;2.62;;;;;;;21.30;58.51;98851.88;1709287;82;21160;-67
2022/06/23 10:58:31;;;;;;;13.85;2.50;;;;;;;21.24;58.62;98866.94;1723129;82;21060;-66
2022/06/23 11:01:37;;;;;;;3.00;2.10;;;;;;;21.14;58.56;98865.17;1720118;82;21192;-66
2022/06/23 11:04:09;;;;;;;8.85;2.35;;;;;;;21.04;58.46;98862.63;1705778;82;21051;-67
2022/06/23 11:07:02;;;;;;;6.15;1.98;;;;;;;20.97;58.60;98868.85;1704816;82;21087;-66
2022/06/23 11:10:02;;;;;;;5.25;1.87;;;;;;;20.90;58.81;98876.06;1703028;82;21090;-66
2022/06/23 11:13:11;;;;;;;3.25;1.98;;;;;;;20.84;59.44;98878.28;1709344;82;21072;-65
2022/06/23 11:16:17;;;;;;;6.37;2.12;;;;;;;20.82;59.43;98880.69;1710847;82;21790;-67
2022/06/23 11:19:18;;;;;;;4.15;1.85;;;;;;;20.78;59.87;98887.69;1710875;82;21199;-65
2022/06/23 11:21:57;;;;;;;5.95;2.10;;;;;;;20.73;59.92;98898.71;1703527;82;21041;-67
2022/06/23 11:24:32;;;;;;;3.25;1.82;;;;;;;20.64;59.62;98892.77;1731034;82;21515;-67
2022/06/23 11:27:24;;;;;;;5.30;2.20;;;;;;;20.55;60.06;98893.18;1714896;82;21051;-65
2022/06/23 11:30:05;;;;;;;8.03;1.90;;;;;;;20.49;60.08;98903.20;1716103;82;21814;-66
2022/06/23 11:33:05;;;;;;;7.05;2.35;;;;;;;20.45;60.11;98904.59;1713026;82;21023;-65
2022/06/23 11:35:58;;;;;;;3.08;2.17;;;;;;;20.43;60.20;98916.78;1719563;82;21103;-66
2022/06/23 11:38:41;;;;;;;4.47;2.08;;;;;;;20.39;60.71;98913.99;1729271;82;21047;-65
2022/06/23 11:41:42;;;;;;;5.22;2.10;;;;;;;20.41;60.26;98915.80;1689336;82;21041;-66
2022/06/23 11:44:46;;;;;;;3.55;1.80;;;;;;;20.47;60.50;98922.38;1703672;83;21659;-67
2022/06/23 11:47:54;;;;;;;5.67;2.40;;;;;;;20.55;60.64;98930.36;1703822;84;21021;-66
2022/06/23 11:50:32;;;;;;;7.37;2.25;;;;;;;20.62;60.95;98939.34;1688252;82;21544;-67
2022/06/23 11:53:16;;;;;;;5.25;2.20;;;;;;;20.65;60.86;98932.93;1717722;82;21341;-67
2022/06/23 11:55:48;;;;;;;;;;;;;;;20.64;60.80;98928.52;1698701;82;21038;-66
2022/06/23 11:58:45;;;;;;;2.55;1.98;;;;;;;20.63;60.73;98930.33;1703775;84;21172;-65
2022/06/23 12:01:17;;;;;;;4.45;1.85;;;;;;;20.62;60.74;98929.55;1717317;82;21027;-66
2022/06/23 12:04:29;;;;;;;6.25;2.30;;;;;;;20.65;60.63;98932.13;1730543;80;21099;-66
2022/06/23 12:07:19;;;;;;;3.92;2.20;;;;;;;20.66;60.56;98937.31;1726373;83;21060;-65
2022/06/23 12:10:00;;;;;;;3.25;1.98;;;;;;;20.64;59.42;98943.91;1715040;82;21473;-66
2022/06/23 12:12:31;;;;;;;7.00;2.25;;;;;;;20.59;58.70;98956.13;1725549;81;21111;-64
2022/06/23 12:15:02;;;;;;;9.63;2.37;;;;;;;20.53;58.70;98945.94;1719228;82;21560;-65
2022/06/23 12:17:34;;;;;;;5.45;2.40;;;;;;;20.54;58.60;98955.33;1726622;81;21092;-66
2022/06/23 12:20:19;;;;;;;5.65;2.08;;;;;;;20.55;58.83;98965.33;1714712;82;22106;-66
2022/06/23 12:23:13;;;;;;;3.12;1.52;;;;;;;20.58;58.73;98965.70;1703583;82;21124;-66
2022/06/23 12:26:04;;;;;;;6.03;1.92;;;;;;;20.59;58.63;98952.71;1665488;85;22148;-67
2022/06/23 12:28:57;;;;;;;10.25;2.33;;;;;;;20.60;58.87;98949.32;1667214;85;21083;-65
2022/06/23 12:31:39;;;;;;;5.03;2.02;;;;;;;20.61;58.61;98952.34;1670137;85;21584;-64
2022/06/23 12:34:34;;;;;;;5.67;2.17;;;;;;;20.60;58.61;98952.92;1688679;84;21135;-66
2022/06/23 12:37:22;;;;;;;2.50;1.80;;;;;;;20.62;58.39;98958.92;1697201;83;21114;-65
2022/06/23 12:40:09;;;;;;;4.03;2.17;;;;;;;20.62;58.54;98961.72;1695226;84;21859;-65
2022/06/23 12:42:46;;;;;;;5.05;1.72;;;;;;;20.66;58.90;98969.49;1696512;84;21013;-66
2022/06/23 12:45:40;;;;;;;3.05;1.95;;;;;;;20.68;58.31;98965.70;1696859;84;21051;-67
2022/06/23 12:48:24;;;;;;;8.15;2.10;;;;;;;20.74;58.49;98972.28;1694804;84;21009;-64
2022/06/23 12:51:14;;;;;;;4.70;1.75;;;;;;;20.75;57.37;98971.87;1619621;87;21049;-65
2022/06/23 12:54:38;;;;;;;7.20;2.30;;;;;;;20.72;57.72;98974.09;1695363;83;21310;-67
2022/06/23 12:57:46;;;;;;;7.85;1.72;;;;;;;20.73;57.81;98972.07;1696105;83;21018;-67
2022/06/23 13:00:17;;;;;;;9.25;1.98;;;;;;;20.76;58.29;98974.09;1674754;85;21563;-65
2022/06/23 13:02:57;;;;;;;6.37;2.40;;;;;;;20.84;58.12;98974.86;1688605;84;21038;-66